Capitol Logistics 227


PHNL
Daniel K Inouye International Airport
Honolulu, Hawaii, US
KLAX
Los Angeles International Airport
Los Angeles, California, US

Activity Log

Date Flight Route Aircraft Duration
05/02/2020 CPX227 MKK4 CLUTS R465 CIVIT R585 AUDIA SNAXX RYDRR2 B763 5h 13m
04/22/2020 CPX227 MKK4 EBBER R577 EDTOO DINTY MOOR4 B763 5h 33m
04/11/2020 CPX117 MKK4 CLUTS R465 CIVIT R585 AUDIA SNAXX RYDRR2 B744 5h 12m
04/04/2020 CPX117 MKK4 CLUTS R465 CIVIT R585 AUDIA SNAXX RYDRR2 B744 4h 53m
06/30/2019 CPX227 MKK4 CLUTS R465 CIVIT R585 AUDIA SNAXX RYDRR2 B763 5h 24m
01/19/2019 CPX227 MKK4 CLUTS R465 CIVIT R585 AUDIA SNAXX RYDRR2 B763 4h 50m
01/08/2019 CPX117 MKK4 EBBER R577 ELKEY RYDRR2 MD11 4h 41m
12/04/2018 CPX127 EBBER R577 ELKEY B763 5h 17m

Route Details

Aircraft Information
Primary: Boeing 767-300BDSF
Backup: Not Available
Route Data
Distance: 2267nm
Sched. Duration: 5h 40m
Avg. Duration: 4h 93m (-47m)
Times Flown: 8
Recm'd Route: MKK4 CLUTS R465 CIVIT R585 AUDIA SNAXX RYDRR2
Planned Altitude: 35,000ft
Origin Wx: PHNL 291053Z 07007KT 10SM FEW025 BKN045 BKN250 25/18 A3014 RMK AO2 SLP205 T02500178
Dest. Wx: KLAX 291053Z 00000KT 5SM BR FEW003 OVC006 16/14 A2993 RMK AO2 SLP135 T01610139
Notes:

Financial History
Total Freight: 1,072,918lbs
Average Load: 134,115lbs/flt
Fuel Used: 578,101lbs
Avg. Fuel Used: 72,263lbs/flt
Fuel Expense: $408,774
Avg. Fuel Expense: $51,097
Avg. Fuel Cost: $0.71/lbs
Total Gross Income: $1,416,339
Pilot Pay: $1,422
Total Expenses: $153,381
Total Revenue: $846,682
Average Revenue: $177,042.37